sensor_id;sensor_type;location;lat;lon;timestamp;pressure;altitude;pressure_sealevel;temperature
12854;BMP180;6495;51.808;7.478;2023-01-09T00:00:05;98914.00;;;8.70
12854;BMP180;6495;51.808;7.478;2023-01-09T00:03:03;98912.00;;;8.70
12854;BMP180;6495;51.808;7.478;2023-01-09T00:06:10;98911.00;;;8.70
12854;BMP180;6495;51.808;7.478;2023-01-09T00:08:57;98900.00;;;8.70
12854;BMP180;6495;51.808;7.478;2023-01-09T00:11:44;98896.00;;;8.70
12854;BMP180;6495;51.808;7.478;2023-01-09T00:14:34;98892.00;;;8.70
12854;BMP180;6495;51.808;7.478;2023-01-09T00:17:20;98895.00;;;8.70
12854;BMP180;6495;51.808;7.478;2023-01-09T00:20:09;98898.00;;;8.70
12854;BMP180;6495;51.808;7.478;2023-01-09T00:22:56;98896.00;;;8.70
12854;BMP180;6495;51.808;7.478;2023-01-09T00:25:43;98896.00;;;8.70
12854;BMP180;6495;51.808;7.478;2023-01-09T00:28:31;98887.00;;;8.70
12854;BMP180;6495;51.808;7.478;2023-01-09T00:31:20;98888.00;;;8.70
12854;BMP180;6495;51.808;7.478;2023-01-09T00:34:08;98881.00;;;8.70
12854;BMP180;6495;51.808;7.478;2023-01-09T00:36:55;98877.00;;;8.60
12854;BMP180;6495;51.808;7.478;2023-01-09T00:39:43;98877.00;;;8.60
12854;BMP180;6495;51.808;7.478;2023-01-09T00:42:32;98888.00;;;8.60
12854;BMP180;6495;51.808;7.478;2023-01-09T00:45:25;98887.00;;;8.60
12854;BMP180;6495;51.808;7.478;2023-01-09T00:48:18;98886.00;;;8.60
12854;BMP180;6495;51.808;7.478;2023-01-09T00:51:11;98884.00;;;8.60
12854;BMP180;6495;51.808;7.478;2023-01-09T00:53:58;98890.00;;;8.50
12854;BMP180;6495;51.808;7.478;2023-01-09T00:56:47;98888.00;;;8.50
12854;BMP180;6495;51.808;7.478;2023-01-09T00:59:38;98885.00;;;8.50
12854;BMP180;6495;51.808;7.478;2023-01-09T01:02:25;98894.00;;;8.50
12854;BMP180;6495;51.808;7.478;2023-01-09T01:05:15;98890.00;;;8.50
12854;BMP180;6495;51.808;7.478;2023-01-09T01:08:20;98888.00;;;8.50
12854;BMP180;6495;51.808;7.478;2023-01-09T01:11:09;98895.00;;;8.50
12854;BMP180;6495;51.808;7.478;2023-01-09T01:13:57;98887.00;;;8.50
12854;BMP180;6495;51.808;7.478;2023-01-09T01:16:44;98899.00;;;8.50
12854;BMP180;6495;51.808;7.478;2023-01-09T01:19:33;98892.00;;;8.60
12854;BMP180;6495;51.808;7.478;2023-01-09T01:22:22;98881.00;;;8.60
12854;BMP180;6495;51.808;7.478;2023-01-09T01:25:10;98899.00;;;8.60
12854;BMP180;6495;51.808;7.478;2023-01-09T01:28:00;98884.00;;;8.50
12854;BMP180;6495;51.808;7.478;2023-01-09T01:30:47;98896.00;;;8.50
12854;BMP180;6495;51.808;7.478;2023-01-09T01:33:35;98897.00;;;8.50
12854;BMP180;6495;51.808;7.478;2023-01-09T01:36:22;98895.00;;;8.50
12854;BMP180;6495;51.808;7.478;2023-01-09T01:39:11;98900.00;;;8.50
12854;BMP180;6495;51.808;7.478;2023-01-09T01:41:58;98896.00;;;8.60
12854;BMP180;6495;51.808;7.478;2023-01-09T01:45:07;98900.00;;;8.60
12854;BMP180;6495;51.808;7.478;2023-01-09T01:47:59;98890.00;;;8.50
12854;BMP180;6495;51.808;7.478;2023-01-09T01:50:52;98895.00;;;8.50
12854;BMP180;6495;51.808;7.478;2023-01-09T01:53:44;98897.00;;;8.50
12854;BMP180;6495;51.808;7.478;2023-01-09T01:56:40;98898.00;;;8.50
12854;BMP180;6495;51.808;7.478;2023-01-09T01:59:36;98899.00;;;8.50
12854;BMP180;6495;51.808;7.478;2023-01-09T02:02:30;98903.00;;;8.50
12854;BMP180;6495;51.808;7.478;2023-01-09T02:05:19;98898.00;;;8.50
12854;BMP180;6495;51.808;7.478;2023-01-09T02:08:08;98907.00;;;8.50
12854;BMP180;6495;51.808;7.478;2023-01-09T02:10:56;98908.00;;;8.50
12854;BMP180;6495;51.808;7.478;2023-01-09T02:13:45;98913.00;;;8.50
12854;BMP180;6495;51.808;7.478;2023-01-09T02:16:43;98913.00;;;8.60
12854;BMP180;6495;51.808;7.478;2023-01-09T02:20:23;98923.00;;;8.60
12854;BMP180;6495;51.808;7.478;2023-01-09T02:24:07;98926.00;;;8.60
12854;BMP180;6495;51.808;7.478;2023-01-09T02:27:26;98925.00;;;8.60
12854;BMP180;6495;51.808;7.478;2023-01-09T02:30:39;98933.00;;;8.60
12854;BMP180;6495;51.808;7.478;2023-01-09T02:33:41;98938.00;;;8.60
12854;BMP180;6495;51.808;7.478;2023-01-09T02:36:42;98936.00;;;8.60
12854;BMP180;6495;51.808;7.478;2023-01-09T02:39:41;98934.00;;;8.60
12854;BMP180;6495;51.808;7.478;2023-01-09T02:42:32;98924.00;;;8.60
12854;BMP180;6495;51.808;7.478;2023-01-09T02:45:19;98936.00;;;8.60
12854;BMP180;6495;51.808;7.478;2023-01-09T02:48:09;98943.00;;;8.60
12854;BMP180;6495;51.808;7.478;2023-01-09T02:51:11;98937.00;;;8.60
12854;BMP180;6495;51.808;7.478;2023-01-09T02:54:14;98930.00;;;8.60
12854;BMP180;6495;51.808;7.478;2023-01-09T02:57:15;98937.00;;;8.60
12854;BMP180;6495;51.808;7.478;2023-01-09T03:00:19;98936.00;;;8.60
12854;BMP180;6495;51.808;7.478;2023-01-09T03:03:15;98933.00;;;8.60
12854;BMP180;6495;51.808;7.478;2023-01-09T03:06:13;98935.00;;;8.60
12854;BMP180;6495;51.808;7.478;2023-01-09T03:09:11;98924.00;;;8.60
12854;BMP180;6495;51.808;7.478;2023-01-09T03:12:03;98933.00;;;8.60
12854;BMP180;6495;51.808;7.478;2023-01-09T03:14:57;98936.00;;;8.60
12854;BMP180;6495;51.808;7.478;2023-01-09T03:17:48;98934.00;;;8.60
12854;BMP180;6495;51.808;7.478;2023-01-09T03:20:38;98938.00;;;8.60
12854;BMP180;6495;51.808;7.478;2023-01-09T03:23:26;98943.00;;;8.50
12854;BMP180;6495;51.808;7.478;2023-01-09T03:26:13;98956.00;;;8.50
12854;BMP180;6495;51.808;7.478;2023-01-09T03:29:00;98956.00;;;8.50
12854;BMP180;6495;51.808;7.478;2023-01-09T03:31:47;98955.00;;;8.50
12854;BMP180;6495;51.808;7.478;2023-01-09T03:34:34;98953.00;;;8.50
12854;BMP180;6495;51.808;7.478;2023-01-09T03:37:22;98965.00;;;8.40
12854;BMP180;6495;51.808;7.478;2023-01-09T03:40:10;98976.00;;;8.40
12854;BMP180;6495;51.808;7.478;2023-01-09T03:42:57;98980.00;;;8.40
12854;BMP180;6495;51.808;7.478;2023-01-09T03:45:44;98985.00;;;8.40
12854;BMP180;6495;51.808;7.478;2023-01-09T03:48:31;98990.00;;;8.40
12854;BMP180;6495;51.808;7.478;2023-01-09T03:51:18;98998.00;;;8.40
12854;BMP180;6495;51.808;7.478;2023-01-09T03:54:06;98999.00;;;8.40
12854;BMP180;6495;51.808;7.478;2023-01-09T03:56:53;99009.00;;;8.40
12854;BMP180;6495;51.808;7.478;2023-01-09T03:59:41;99010.00;;;8.40
12854;BMP180;6495;51.808;7.478;2023-01-09T04:02:28;99007.00;;;8.40
12854;BMP180;6495;51.808;7.478;2023-01-09T04:05:15;99006.00;;;8.40
12854;BMP180;6495;51.808;7.478;2023-01-09T04:08:02;99014.00;;;8.30
12854;BMP180;6495;51.808;7.478;2023-01-09T04:10:51;99019.00;;;8.30
12854;BMP180;6495;51.808;7.478;2023-01-09T04:13:38;99016.00;;;8.20
12854;BMP180;6495;51.808;7.478;2023-01-09T04:16:25;99015.00;;;8.20
12854;BMP180;6495;51.808;7.478;2023-01-09T04:19:12;99018.00;;;8.20
12854;BMP180;6495;51.808;7.478;2023-01-09T04:21:59;99019.00;;;8.20
12854;BMP180;6495;51.808;7.478;2023-01-09T04:24:46;99026.00;;;8.20
12854;BMP180;6495;51.808;7.478;2023-01-09T04:27:36;99023.00;;;8.10
12854;BMP180;6495;51.808;7.478;2023-01-09T04:30:23;99019.00;;;8.10
12854;BMP180;6495;51.808;7.478;2023-01-09T04:33:10;99024.00;;;8.10
12854;BMP180;6495;51.808;7.478;2023-01-09T04:35:57;99025.00;;;8.10
12854;BMP180;6495;51.808;7.478;2023-01-09T04:38:44;99029.00;;;8.10
12854;BMP180;6495;51.808;7.478;2023-01-09T04:41:31;99031.00;;;8.20
12854;BMP180;6495;51.808;7.478;2023-01-09T04:44:38;99025.00;;;8.20
12854;BMP180;6495;51.808;7.478;2023-01-09T04:47:25;99037.00;;;8.20
12854;BMP180;6495;51.808;7.478;2023-01-09T04:50:12;99032.00;;;8.20
12854;BMP180;6495;51.808;7.478;2023-01-09T04:52:59;99032.00;;;8.10
12854;BMP180;6495;51.808;7.478;2023-01-09T04:55:46;99034.00;;;8.10
12854;BMP180;6495;51.808;7.478;2023-01-09T04:58:33;99039.00;;;8.10
12854;BMP180;6495;51.808;7.478;2023-01-09T05:01:22;99038.00;;;8.10
12854;BMP180;6495;51.808;7.478;2023-01-09T05:04:10;99043.00;;;8.10
12854;BMP180;6495;51.808;7.478;2023-01-09T05:06:57;99044.00;;;8.00
12854;BMP180;6495;51.808;7.478;2023-01-09T05:09:45;99044.00;;;8.00
12854;BMP180;6495;51.808;7.478;2023-01-09T05:12:33;99054.00;;;8.10
12854;BMP180;6495;51.808;7.478;2023-01-09T05:15:26;99060.00;;;8.10
12854;BMP180;6495;51.808;7.478;2023-01-09T05:18:21;99068.00;;;8.10
12854;BMP180;6495;51.808;7.478;2023-01-09T05:21:09;99069.00;;;8.10
12854;BMP180;6495;51.808;7.478;2023-01-09T05:23:56;99070.00;;;8.10
12854;BMP180;6495;51.808;7.478;2023-01-09T05:26:43;99071.00;;;8.00
12854;BMP180;6495;51.808;7.478;2023-01-09T05:29:30;99086.00;;;7.90
12854;BMP180;6495;51.808;7.478;2023-01-09T05:32:16;99090.00;;;7.80
12854;BMP180;6495;51.808;7.478;2023-01-09T05:35:06;99079.00;;;7.80
12854;BMP180;6495;51.808;7.478;2023-01-09T05:37:53;99090.00;;;7.80
12854;BMP180;6495;51.808;7.478;2023-01-09T05:40:40;99095.00;;;7.80
12854;BMP180;6495;51.808;7.478;2023-01-09T05:43:26;99092.00;;;7.70
12854;BMP180;6495;51.808;7.478;2023-01-09T05:46:14;99092.00;;;7.80
12854;BMP180;6495;51.808;7.478;2023-01-09T05:49:01;99094.00;;;7.80
12854;BMP180;6495;51.808;7.478;2023-01-09T05:51:49;99093.00;;;7.80
12854;BMP180;6495;51.808;7.478;2023-01-09T05:54:36;99086.00;;;7.80
12854;BMP180;6495;51.808;7.478;2023-01-09T05:57:23;99086.00;;;7.70
12854;BMP180;6495;51.808;7.478;2023-01-09T06:00:11;99080.00;;;7.70
12854;BMP180;6495;51.808;7.478;2023-01-09T06:02:59;99086.00;;;7.70
12854;BMP180;6495;51.808;7.478;2023-01-09T06:05:46;99091.00;;;7.70
12854;BMP180;6495;51.808;7.478;2023-01-09T06:08:34;99097.00;;;7.70
12854;BMP180;6495;51.808;7.478;2023-01-09T06:11:21;99089.00;;;7.70
12854;BMP180;6495;51.808;7.478;2023-01-09T06:14:08;99082.00;;;7.70
12854;BMP180;6495;51.808;7.478;2023-01-09T06:16:55;99083.00;;;7.60
12854;BMP180;6495;51.808;7.478;2023-01-09T06:19:41;99085.00;;;7.60
12854;BMP180;6495;51.808;7.478;2023-01-09T06:22:28;99085.00;;;7.60
12854;BMP180;6495;51.808;7.478;2023-01-09T06:25:17;99086.00;;;7.60
12854;BMP180;6495;51.808;7.478;2023-01-09T06:28:04;99088.00;;;7.60
12854;BMP180;6495;51.808;7.478;2023-01-09T06:30:51;99084.00;;;7.60
12854;BMP180;6495;51.808;7.478;2023-01-09T06:33:38;99092.00;;;7.50
12854;BMP180;6495;51.808;7.478;2023-01-09T06:36:24;99096.00;;;7.50
12854;BMP180;6495;51.808;7.478;2023-01-09T06:39:11;99093.00;;;7.50
12854;BMP180;6495;51.808;7.478;2023-01-09T06:41:59;99096.00;;;7.50
12854;BMP180;6495;51.808;7.478;2023-01-09T06:44:46;99080.00;;;7.50
12854;BMP180;6495;51.808;7.478;2023-01-09T06:47:33;99089.00;;;7.50
12854;BMP180;6495;51.808;7.478;2023-01-09T06:50:20;99097.00;;;7.50
12854;BMP180;6495;51.808;7.478;2023-01-09T06:53:07;99094.00;;;7.40
12854;BMP180;6495;51.808;7.478;2023-01-09T06:55:55;99091.00;;;7.50
12854;BMP180;6495;51.808;7.478;2023-01-09T06:58:43;99085.00;;;7.50
12854;BMP180;6495;51.808;7.478;2023-01-09T07:01:30;99085.00;;;7.40
12854;BMP180;6495;51.808;7.478;2023-01-09T07:04:17;99090.00;;;7.40
12854;BMP180;6495;51.808;7.478;2023-01-09T07:07:06;99103.00;;;7.40
12854;BMP180;6495;51.808;7.478;2023-01-09T07:09:52;99093.00;;;7.40
12854;BMP180;6495;51.808;7.478;2023-01-09T07:12:39;99095.00;;;7.40
12854;BMP180;6495;51.808;7.478;2023-01-09T07:15:27;99099.00;;;7.40
12854;BMP180;6495;51.808;7.478;2023-01-09T07:18:14;99097.00;;;7.40
12854;BMP180;6495;51.808;7.478;2023-01-09T07:21:01;99105.00;;;7.30
12854;BMP180;6495;51.808;7.478;2023-01-09T07:23:48;99094.00;;;7.30
12854;BMP180;6495;51.808;7.478;2023-01-09T07:26:35;99097.00;;;7.30
12854;BMP180;6495;51.808;7.478;2023-01-09T07:29:22;99089.00;;;7.30
12854;BMP180;6495;51.808;7.478;2023-01-09T07:32:10;99089.00;;;7.30
12854;BMP180;6495;51.808;7.478;2023-01-09T07:34:57;99095.00;;;7.30
12854;BMP180;6495;51.808;7.478;2023-01-09T07:37:45;99098.00;;;7.30
12854;BMP180;6495;51.808;7.478;2023-01-09T07:40:32;99101.00;;;7.30
12854;BMP180;6495;51.808;7.478;2023-01-09T07:43:19;99104.00;;;7.20
12854;BMP180;6495;51.808;7.478;2023-01-09T07:46:06;99104.00;;;7.30
12854;BMP180;6495;51.808;7.478;2023-01-09T07:48:55;99104.00;;;7.30
12854;BMP180;6495;51.808;7.478;2023-01-09T07:51:42;99107.00;;;7.30
12854;BMP180;6495;51.808;7.478;2023-01-09T07:54:29;99105.00;;;7.30
12854;BMP180;6495;51.808;7.478;2023-01-09T07:57:16;99106.00;;;7.30
12854;BMP180;6495;51.808;7.478;2023-01-09T08:00:04;99107.00;;;7.30
12854;BMP180;6495;51.808;7.478;2023-01-09T08:02:53;99103.00;;;7.30
12854;BMP180;6495;51.808;7.478;2023-01-09T08:05:41;99094.00;;;7.30
12854;BMP180;6495;51.808;7.478;2023-01-09T08:08:28;99119.00;;;7.30
12854;BMP180;6495;51.808;7.478;2023-01-09T08:11:15;99124.00;;;7.30
12854;BMP180;6495;51.808;7.478;2023-01-09T08:14:02;99110.00;;;7.30
12854;BMP180;6495;51.808;7.478;2023-01-09T08:16:49;99113.00;;;7.30
12854;BMP180;6495;51.808;7.478;2023-01-09T08:19:35;99116.00;;;7.30
12854;BMP180;6495;51.808;7.478;2023-01-09T08:22:24;99120.00;;;7.30
12854;BMP180;6495;51.808;7.478;2023-01-09T08:27:45;99116.00;;;7.40
12854;BMP180;6495;51.808;7.478;2023-01-09T08:30:31;99109.00;;;7.40
12854;BMP180;6495;51.808;7.478;2023-01-09T08:33:18;99115.00;;;7.40
12854;BMP180;6495;51.808;7.478;2023-01-09T08:36:06;99104.00;;;7.40
12854;BMP180;6495;51.808;7.478;2023-01-09T08:38:54;99122.00;;;7.40
12854;BMP180;6495;51.808;7.478;2023-01-09T08:41:41;99118.00;;;7.40
12854;BMP180;6495;51.808;7.478;2023-01-09T08:44:45;99104.00;;;7.40
12854;BMP180;6495;51.808;7.478;2023-01-09T08:47:50;99107.00;;;7.40
12854;BMP180;6495;51.808;7.478;2023-01-09T08:50:37;99118.00;;;7.40
12854;BMP180;6495;51.808;7.478;2023-01-09T08:53:23;99119.00;;;7.50
12854;BMP180;6495;51.808;7.478;2023-01-09T08:56:11;99117.00;;;7.50
12854;BMP180;6495;51.808;7.478;2023-01-09T08:58:57;99126.00;;;7.50
12854;BMP180;6495;51.808;7.478;2023-01-09T09:01:44;99135.00;;;7.40
12854;BMP180;6495;51.808;7.478;2023-01-09T09:04:31;99132.00;;;7.40
12854;BMP180;6495;51.808;7.478;2023-01-09T09:07:18;99124.00;;;7.50
12854;BMP180;6495;51.808;7.478;2023-01-09T09:10:10;99128.00;;;7.50
12854;BMP180;6495;51.808;7.478;2023-01-09T09:12:59;99124.00;;;7.50
12854;BMP180;6495;51.808;7.478;2023-01-09T09:15:46;99131.00;;;7.50
12854;BMP180;6495;51.808;7.478;2023-01-09T09:18:32;99143.00;;;7.50
12854;BMP180;6495;51.808;7.478;2023-01-09T09:21:19;99131.00;;;7.50
12854;BMP180;6495;51.808;7.478;2023-01-09T09:24:06;99132.00;;;7.50
12854;BMP180;6495;51.808;7.478;2023-01-09T09:26:52;99131.00;;;7.50
12854;BMP180;6495;51.808;7.478;2023-01-09T09:29:40;99139.00;;;7.50
12854;BMP180;6495;51.808;7.478;2023-01-09T09:32:27;99129.00;;;7.60
12854;BMP180;6495;51.808;7.478;2023-01-09T09:35:14;99140.00;;;7.50
12854;BMP180;6495;51.808;7.478;2023-01-09T09:38:04;99140.00;;;7.50
12854;BMP180;6495;51.808;7.478;2023-01-09T09:41:26;99147.00;;;7.60
12854;BMP180;6495;51.808;7.478;2023-01-09T09:44:51;99154.00;;;7.60
12854;BMP180;6495;51.808;7.478;2023-01-09T09:47:51;99161.00;;;7.60
12854;BMP180;6495;51.808;7.478;2023-01-09T09:51:16;99161.00;;;7.60
12854;BMP180;6495;51.808;7.478;2023-01-09T09:54:09;99171.00;;;7.60
12854;BMP180;6495;51.808;7.478;2023-01-09T09:57:02;99168.00;;;7.60
12854;BMP180;6495;51.808;7.478;2023-01-09T09:59:51;99165.00;;;7.60
12854;BMP180;6495;51.808;7.478;2023-01-09T10:02:45;99168.00;;;7.60
12854;BMP180;6495;51.808;7.478;2023-01-09T10:05:39;99173.00;;;7.60
12854;BMP180;6495;51.808;7.478;2023-01-09T10:08:36;99169.00;;;7.60
12854;BMP180;6495;51.808;7.478;2023-01-09T10:11:32;99169.00;;;7.60
12854;BMP180;6495;51.808;7.478;2023-01-09T10:14:22;99164.00;;;7.60
12854;BMP180;6495;51.808;7.478;2023-01-09T10:17:44;99168.00;;;7.70
12854;BMP180;6495;51.808;7.478;2023-01-09T10:20:56;99167.00;;;7.70
12854;BMP180;6495;51.808;7.478;2023-01-09T10:24:12;99168.00;;;7.70
12854;BMP180;6495;51.808;7.478;2023-01-09T10:27:16;99163.00;;;7.70
12854;BMP180;6495;51.808;7.478;2023-01-09T10:30:25;99164.00;;;7.70
12854;BMP180;6495;51.808;7.478;2023-01-09T10:33:34;99171.00;;;7.80
12854;BMP180;6495;51.808;7.478;2023-01-09T10:36:55;99171.00;;;7.80
12854;BMP180;6495;51.808;7.478;2023-01-09T10:39:51;99172.00;;;7.80
12854;BMP180;6495;51.808;7.478;2023-01-09T10:42:46;99168.00;;;7.80
12854;BMP180;6495;51.808;7.478;2023-01-09T10:45:39;99186.00;;;7.90
12854;BMP180;6495;51.808;7.478;2023-01-09T10:48:33;99188.00;;;7.90
12854;BMP180;6495;51.808;7.478;2023-01-09T10:51:24;99191.00;;;7.90
12854;BMP180;6495;51.808;7.478;2023-01-09T10:54:15;99197.00;;;7.90
12854;BMP180;6495;51.808;7.478;2023-01-09T10:57:11;99194.00;;;7.90
12854;BMP180;6495;51.808;7.478;2023-01-09T10:59:58;99193.00;;;7.90
12854;BMP180;6495;51.808;7.478;2023-01-09T11:02:45;99200.00;;;8.00
12854;BMP180;6495;51.808;7.478;2023-01-09T11:05:33;99198.00;;;8.00
12854;BMP180;6495;51.808;7.478;2023-01-09T11:08:28;99194.00;;;8.00
12854;BMP180;6495;51.808;7.478;2023-01-09T11:11:32;99202.00;;;8.00
12854;BMP180;6495;51.808;7.478;2023-01-09T11:14:24;99200.00;;;8.10
12854;BMP180;6495;51.808;7.478;2023-01-09T11:17:20;99205.00;;;8.10
12854;BMP180;6495;51.808;7.478;2023-01-09T11:20:16;99206.00;;;8.10
12854;BMP180;6495;51.808;7.478;2023-01-09T11:23:27;99201.00;;;8.10
12854;BMP180;6495;51.808;7.478;2023-01-09T11:26:23;99207.00;;;8.10
12854;BMP180;6495;51.808;7.478;2023-01-09T11:29:13;99208.00;;;8.10
12854;BMP180;6495;51.808;7.478;2023-01-09T11:32:00;99208.00;;;8.20
12854;BMP180;6495;51.808;7.478;2023-01-09T11:34:47;99211.00;;;8.20
12854;BMP180;6495;51.808;7.478;2023-01-09T11:37:34;99211.00;;;8.20
12854;BMP180;6495;51.808;7.478;2023-01-09T11:40:22;99221.00;;;8.20
12854;BMP180;6495;51.808;7.478;2023-01-09T11:43:18;99220.00;;;8.20
12854;BMP180;6495;51.808;7.478;2023-01-09T11:46:09;99219.00;;;8.20
12854;BMP180;6495;51.808;7.478;2023-01-09T11:48:58;99227.00;;;8.20
12854;BMP180;6495;51.808;7.478;2023-01-09T11:51:45;99229.00;;;8.20
12854;BMP180;6495;51.808;7.478;2023-01-09T11:54:54;99231.00;;;8.30
12854;BMP180;6495;51.808;7.478;2023-01-09T11:57:43;99239.00;;;8.30
12854;BMP180;6495;51.808;7.478;2023-01-09T12:00:38;99253.00;;;8.40
12854;BMP180;6495;51.808;7.478;2023-01-09T12:03:49;99240.00;;;8.40
12854;BMP180;6495;51.808;7.478;2023-01-09T12:06:52;99246.00;;;8.40
12854;BMP180;6495;51.808;7.478;2023-01-09T12:09:56;99242.00;;;8.40
12854;BMP180;6495;51.808;7.478;2023-01-09T12:12:57;99243.00;;;8.40
12854;BMP180;6495;51.808;7.478;2023-01-09T12:16:02;99246.00;;;8.40
12854;BMP180;6495;51.808;7.478;2023-01-09T12:19:20;99261.00;;;8.50
12854;BMP180;6495;51.808;7.478;2023-01-09T12:22:21;99267.00;;;8.50
12854;BMP180;6495;51.808;7.478;2023-01-09T12:25:26;99266.00;;;8.50
12854;BMP180;6495;51.808;7.478;2023-01-09T12:28:57;99270.00;;;8.60
12854;BMP180;6495;51.808;7.478;2023-01-09T12:32:05;99264.00;;;8.60
12854;BMP180;6495;51.808;7.478;2023-01-09T12:35:03;99265.00;;;8.60
12854;BMP180;6495;51.808;7.478;2023-01-09T12:38:26;99274.00;;;8.60
12854;BMP180;6495;51.808;7.478;2023-01-09T12:41:59;99265.00;;;8.60
12854;BMP180;6495;51.808;7.478;2023-01-09T12:44:54;99283.00;;;8.60
12854;BMP180;6495;51.808;7.478;2023-01-09T12:47:45;99274.00;;;8.60
12854;BMP180;6495;51.808;7.478;2023-01-09T12:50:56;99268.00;;;8.60
12854;BMP180;6495;51.808;7.478;2023-01-09T12:53:56;99286.00;;;8.60
12854;BMP180;6495;51.808;7.478;2023-01-09T12:56:51;99289.00;;;8.60
12854;BMP180;6495;51.808;7.478;2023-01-09T12:59:43;99291.00;;;8.60
12854;BMP180;6495;51.808;7.478;2023-01-09T13:02:38;99294.00;;;8.60
12854;BMP180;6495;51.808;7.478;2023-01-09T13:05:32;99308.00;;;8.70
12854;BMP180;6495;51.808;7.478;2023-01-09T13:08:26;99296.00;;;8.70
12854;BMP180;6495;51.808;7.478;2023-01-09T13:11:21;99311.00;;;8.70
12854;BMP180;6495;51.808;7.478;2023-01-09T13:14:16;99317.00;;;8.70
12854;BMP180;6495;51.808;7.478;2023-01-09T13:17:05;99332.00;;;8.80
12854;BMP180;6495;51.808;7.478;2023-01-09T13:19:54;99322.00;;;8.70
12854;BMP180;6495;51.808;7.478;2023-01-09T13:22:41;99328.00;;;8.70
12854;BMP180;6495;51.808;7.478;2023-01-09T13:25:44;99331.00;;;8.70
12854;BMP180;6495;51.808;7.478;2023-01-09T13:28:40;99336.00;;;8.70
12854;BMP180;6495;51.808;7.478;2023-01-09T13:31:56;99346.00;;;8.80
12854;BMP180;6495;51.808;7.478;2023-01-09T13:34:50;99349.00;;;8.80
12854;BMP180;6495;51.808;7.478;2023-01-09T13:37:40;99350.00;;;8.80
12854;BMP180;6495;51.808;7.478;2023-01-09T13:40:29;99362.00;;;8.80
12854;BMP180;6495;51.808;7.478;2023-01-09T13:43:17;99365.00;;;8.70
12854;BMP180;6495;51.808;7.478;2023-01-09T13:46:04;99371.00;;;8.70
12854;BMP180;6495;51.808;7.478;2023-01-09T13:48:50;99372.00;;;8.70
12854;BMP180;6495;51.808;7.478;2023-01-09T13:51:58;99389.00;;;8.70
12854;BMP180;6495;51.808;7.478;2023-01-09T13:55:29;99389.00;;;8.70
12854;BMP180;6495;51.808;7.478;2023-01-09T13:58:25;99395.00;;;8.70
12854;BMP180;6495;51.808;7.478;2023-01-09T14:01:41;99399.00;;;8.70
12854;BMP180;6495;51.808;7.478;2023-01-09T14:04:43;99405.00;;;8.70
12854;BMP180;6495;51.808;7.478;2023-01-09T14:07:31;99398.00;;;8.70
12854;BMP180;6495;51.808;7.478;2023-01-09T14:10:24;99407.00;;;8.70
12854;BMP180;6495;51.808;7.478;2023-01-09T14:13:17;99409.00;;;8.70
12854;BMP180;6495;51.808;7.478;2023-01-09T14:16:14;99428.00;;;8.70
12854;BMP180;6495;51.808;7.478;2023-01-09T14:19:15;99428.00;;;8.70
12854;BMP180;6495;51.808;7.478;2023-01-09T14:22:23;99429.00;;;8.70
12854;BMP180;6495;51.808;7.478;2023-01-09T14:25:19;99439.00;;;8.70
12854;BMP180;6495;51.808;7.478;2023-01-09T14:28:21;99443.00;;;8.70
12854;BMP180;6495;51.808;7.478;2023-01-09T14:31:25;99453.00;;;8.70
12854;BMP180;6495;51.808;7.478;2023-01-09T14:34:29;99462.00;;;8.70
12854;BMP180;6495;51.808;7.478;2023-01-09T14:37:21;99454.00;;;8.70
12854;BMP180;6495;51.808;7.478;2023-01-09T14:40:20;99464.00;;;8.70
12854;BMP180;6495;51.808;7.478;2023-01-09T14:43:20;99477.00;;;8.70
12854;BMP180;6495;51.808;7.478;2023-01-09T14:46:13;99493.00;;;8.70
12854;BMP180;6495;51.808;7.478;2023-01-09T14:49:06;99507.00;;;8.60
12854;BMP180;6495;51.808;7.478;2023-01-09T14:52:07;99504.00;;;8.60
12854;BMP180;6495;51.808;7.478;2023-01-09T14:55:01;99509.00;;;8.60
12854;BMP180;6495;51.808;7.478;2023-01-09T14:57:48;99515.00;;;8.60
12854;BMP180;6495;51.808;7.478;2023-01-09T15:00:50;99520.00;;;8.60
12854;BMP180;6495;51.808;7.478;2023-01-09T15:03:42;99530.00;;;8.60
12854;BMP180;6495;51.808;7.478;2023-01-09T15:06:35;99546.00;;;8.60
12854;BMP180;6495;51.808;7.478;2023-01-09T15:09:26;99541.00;;;8.60
12854;BMP180;6495;51.808;7.478;2023-01-09T15:12:20;99544.00;;;8.70
12854;BMP180;6495;51.808;7.478;2023-01-09T15:15:14;99546.00;;;8.70
12854;BMP180;6495;51.808;7.478;2023-01-09T15:18:06;99557.00;;;8.70
12854;BMP180;6495;51.808;7.478;2023-01-09T15:20:59;99555.00;;;8.70
12854;BMP180;6495;51.808;7.478;2023-01-09T15:23:46;99556.00;;;8.60
12854;BMP180;6495;51.808;7.478;2023-01-09T15:26:33;99577.00;;;8.60
12854;BMP180;6495;51.808;7.478;2023-01-09T15:29:19;99577.00;;;8.60
12854;BMP180;6495;51.808;7.478;2023-01-09T15:32:16;99585.00;;;8.50
12854;BMP180;6495;51.808;7.478;2023-01-09T15:35:12;99578.00;;;8.50
12854;BMP180;6495;51.808;7.478;2023-01-09T15:37:59;99594.00;;;8.50
12854;BMP180;6495;51.808;7.478;2023-01-09T15:40:52;99599.00;;;8.60
12854;BMP180;6495;51.808;7.478;2023-01-09T15:43:42;99602.00;;;8.60
12854;BMP180;6495;51.808;7.478;2023-01-09T15:46:31;99623.00;;;8.50
12854;BMP180;6495;51.808;7.478;2023-01-09T15:49:18;99634.00;;;8.50
12854;BMP180;6495;51.808;7.478;2023-01-09T15:52:11;99638.00;;;8.50
12854;BMP180;6495;51.808;7.478;2023-01-09T15:54:59;99639.00;;;8.40
12854;BMP180;6495;51.808;7.478;2023-01-09T15:57:50;99639.00;;;8.30
12854;BMP180;6495;51.808;7.478;2023-01-09T16:00:39;99638.00;;;8.30
12854;BMP180;6495;51.808;7.478;2023-01-09T16:03:28;99646.00;;;8.40
12854;BMP180;6495;51.808;7.478;2023-01-09T16:06:22;99648.00;;;8.40
12854;BMP180;6495;51.808;7.478;2023-01-09T16:09:17;99662.00;;;8.40
12854;BMP180;6495;51.808;7.478;2023-01-09T16:12:17;99677.00;;;8.40
12854;BMP180;6495;51.808;7.478;2023-01-09T16:15:13;99678.00;;;8.40
12854;BMP180;6495;51.808;7.478;2023-01-09T16:18:05;99677.00;;;8.30
12854;BMP180;6495;51.808;7.478;2023-01-09T16:24:27;99698.00;;;8.30
12854;BMP180;6495;51.808;7.478;2023-01-09T16:27:26;99701.00;;;8.30
12854;BMP180;6495;51.808;7.478;2023-01-09T16:30:25;99709.00;;;8.30
12854;BMP180;6495;51.808;7.478;2023-01-09T16:33:20;99704.00;;;8.30
12854;BMP180;6495;51.808;7.478;2023-01-09T16:36:09;99713.00;;;8.20
12854;BMP180;6495;51.808;7.478;2023-01-09T16:38:58;99717.00;;;8.20
12854;BMP180;6495;51.808;7.478;2023-01-09T16:41:48;99721.00;;;8.30
12854;BMP180;6495;51.808;7.478;2023-01-09T16:44:58;99722.00;;;8.20
12854;BMP180;6495;51.808;7.478;2023-01-09T16:47:45;99714.00;;;8.20
12854;BMP180;6495;51.808;7.478;2023-01-09T16:50:34;99720.00;;;8.20
12854;BMP180;6495;51.808;7.478;2023-01-09T16:53:22;99720.00;;;8.20
12854;BMP180;6495;51.808;7.478;2023-01-09T16:56:16;99734.00;;;8.20
12854;BMP180;6495;51.808;7.478;2023-01-09T16:59:04;99737.00;;;8.20
12854;BMP180;6495;51.808;7.478;2023-01-09T17:01:53;99738.00;;;8.20
12854;BMP180;6495;51.808;7.478;2023-01-09T17:04:39;99742.00;;;8.20
12854;BMP180;6495;51.808;7.478;2023-01-09T17:07:26;99749.00;;;8.20
12854;BMP180;6495;51.808;7.478;2023-01-09T17:10:20;99754.00;;;8.30